sensor_id;sensor_type;location;lat;lon;timestamp;pressure;altitude;pressure_sealevel;temperature;humidity
4149;BME280;2088;51.032;7.082;2022-10-16T00:00:09;49352.88;;;-142.28;100.00
4149;BME280;2088;51.032;7.082;2022-10-16T00:02:36;49345.13;;;-142.28;100.00
4149;BME280;2088;51.032;7.082;2022-10-16T00:05:02;49376.09;;;-142.28;100.00
4149;BME280;2088;51.032;7.082;2022-10-16T00:07:29;49360.59;;;-142.28;100.00
4149;BME280;2088;51.032;7.082;2022-10-16T00:09:55;49354.81;;;-142.28;100.00
4149;BME280;2088;51.032;7.082;2022-10-16T00:12:23;49403.19;;;-142.28;100.00
4149;BME280;2088;51.032;7.082;2022-10-16T00:14:49;49403.19;;;-142.28;100.00
4149;BME280;2088;51.032;7.082;2022-10-16T00:17:16;49412.88;;;-142.28;100.00
4149;BME280;2088;51.032;7.082;2022-10-16T00:19:42;49424.50;;;-142.28;100.00
4149;BME280;2088;51.032;7.082;2022-10-16T00:22:09;49434.16;;;-142.28;100.00
4149;BME280;2088;51.032;7.082;2022-10-16T00:24:36;49447.72;;;-142.28;100.00
4149;BME280;2088;51.032;7.082;2022-10-16T00:27:02;49461.28;;;-142.28;100.00
4149;BME280;2088;51.032;7.082;2022-10-16T00:29:30;49494.19;;;-142.28;100.00
4149;BME280;2088;51.032;7.082;2022-10-16T00:31:57;49449.66;;;-142.28;100.00
4149;BME280;2088;51.032;7.082;2022-10-16T00:34:23;49476.75;;;-142.28;100.00
4149;BME280;2088;51.032;7.082;2022-10-16T00:36:50;49476.75;;;-142.28;100.00
4149;BME280;2088;51.032;7.082;2022-10-16T00:39:16;49476.75;;;-142.28;100.00
4149;BME280;2088;51.032;7.082;2022-10-16T00:41:43;49480.63;;;-142.28;100.00
4149;BME280;2088;51.032;7.082;2022-10-16T00:44:43;49443.84;;;-142.28;100.00
4149;BME280;2088;51.032;7.082;2022-10-16T00:47:13;49414.81;;;-142.28;100.00
4149;BME280;2088;51.032;7.082;2022-10-16T00:49:41;49472.91;;;-142.28;100.00
4149;BME280;2088;51.032;7.082;2022-10-16T00:52:08;49457.41;;;-142.28;100.00
4149;BME280;2088;51.032;7.082;2022-10-16T00:54:36;49449.66;;;-142.28;100.00
4149;BME280;2088;51.032;7.082;2022-10-16T00:57:04;49439.97;;;-142.28;100.00
4149;BME280;2088;51.032;7.082;2022-10-16T00:59:33;49443.84;;;-142.28;100.00
4149;BME280;2088;51.032;7.082;2022-10-16T01:02:02;49465.16;;;-142.28;100.00
4149;BME280;2088;51.032;7.082;2022-10-16T01:04:34;49409.00;;;-142.28;100.00
4149;BME280;2088;51.032;7.082;2022-10-16T01:07:08;49463.22;;;-142.28;100.00
4149;BME280;2088;51.032;7.082;2022-10-16T01:09:45;49515.47;;;-142.28;100.00
4149;BME280;2088;51.032;7.082;2022-10-16T01:12:16;49534.84;;;-142.28;100.00
4149;BME280;2088;51.032;7.082;2022-10-16T01:14:53;49577.44;;;-142.28;100.00
4149;BME280;2088;51.032;7.082;2022-10-16T01:17:25;49577.44;;;-142.28;100.00
4149;BME280;2088;51.032;7.082;2022-10-16T01:20:03;49585.19;;;-142.28;100.00
4149;BME280;2088;51.032;7.082;2022-10-16T01:22:38;49623.91;;;-142.28;100.00
4149;BME280;2088;51.032;7.082;2022-10-16T01:25:09;49600.66;;;-142.28;100.00
4149;BME280;2088;51.032;7.082;2022-10-16T01:27:40;49604.53;;;-142.28;100.00
4149;BME280;2088;51.032;7.082;2022-10-16T01:30:12;49608.41;;;-142.28;100.00
4149;BME280;2088;51.032;7.082;2022-10-16T01:32:42;49569.69;;;-142.28;100.00
4149;BME280;2088;51.032;7.082;2022-10-16T01:35:14;49604.53;;;-142.28;100.00
4149;BME280;2088;51.032;7.082;2022-10-16T01:37:47;49618.09;;;-142.28;100.00
4149;BME280;2088;51.032;7.082;2022-10-16T01:40:17;49600.66;;;-142.28;100.00
4149;BME280;2088;51.032;7.082;2022-10-16T01:42:49;49600.66;;;-142.28;100.00
4149;BME280;2088;51.032;7.082;2022-10-16T01:45:19;49592.94;;;-142.28;100.00
4149;BME280;2088;51.032;7.082;2022-10-16T01:47:47;49550.34;;;-142.28;100.00
4149;BME280;2088;51.032;7.082;2022-10-16T01:50:16;49569.69;;;-142.28;100.00
4149;BME280;2088;51.032;7.082;2022-10-16T01:52:46;49602.59;;;-142.28;100.00
4149;BME280;2088;51.032;7.082;2022-10-16T01:55:16;49596.78;;;-142.28;100.00
4149;BME280;2088;51.032;7.082;2022-10-16T01:57:48;49614.22;;;-142.28;100.00
4149;BME280;2088;51.032;7.082;2022-10-16T02:00:17;49596.78;;;-142.28;100.00
4149;BME280;2088;51.032;7.082;2022-10-16T02:02:49;49643.25;;;-142.28;100.00
4149;BME280;2088;51.032;7.082;2022-10-16T02:05:21;49635.53;;;-142.28;100.00
4149;BME280;2088;51.032;7.082;2022-10-16T02:07:49;49631.66;;;-142.28;100.00
4149;BME280;2088;51.032;7.082;2022-10-16T02:10:16;49612.28;;;-142.28;100.00
4149;BME280;2088;51.032;7.082;2022-10-16T02:12:46;49600.66;;;-142.28;100.00
4149;BME280;2088;51.032;7.082;2022-10-16T02:15:17;49585.19;;;-142.28;100.00
4149;BME280;2088;51.032;7.082;2022-10-16T02:17:43;49569.69;;;-142.28;100.00
4149;BME280;2088;51.032;7.082;2022-10-16T02:20:10;49567.75;;;-142.28;100.00
4149;BME280;2088;51.032;7.082;2022-10-16T02:22:40;49550.34;;;-142.28;100.00
4149;BME280;2088;51.032;7.082;2022-10-16T02:25:10;49525.16;;;-142.28;100.00
4149;BME280;2088;51.032;7.082;2022-10-16T02:27:42;49538.72;;;-142.28;100.00
4149;BME280;2088;51.032;7.082;2022-10-16T02:30:13;49492.25;;;-142.28;100.00
4149;BME280;2088;51.032;7.082;2022-10-16T02:32:44;49469.03;;;-142.28;100.00
4149;BME280;2088;51.032;7.082;2022-10-16T02:35:12;49476.75;;;-142.28;100.00
4149;BME280;2088;51.032;7.082;2022-10-16T02:37:40;49472.91;;;-142.28;100.00
4149;BME280;2088;51.032;7.082;2022-10-16T02:40:08;49478.69;;;-142.28;100.00
4149;BME280;2088;51.032;7.082;2022-10-16T02:42:36;49463.22;;;-142.28;100.00
4149;BME280;2088;51.032;7.082;2022-10-16T02:45:04;49459.34;;;-142.28;100.00
4149;BME280;2088;51.032;7.082;2022-10-16T02:47:30;49449.66;;;-142.28;100.00
4149;BME280;2088;51.032;7.082;2022-10-16T02:49:58;49455.47;;;-142.28;100.00
4149;BME280;2088;51.032;7.082;2022-10-16T02:52:25;49453.53;;;-142.28;100.00
4149;BME280;2088;51.032;7.082;2022-10-16T02:54:51;49451.59;;;-142.28;100.00
4149;BME280;2088;51.032;7.082;2022-10-16T02:57:18;49399.31;;;-142.28;100.00
4149;BME280;2088;51.032;7.082;2022-10-16T02:59:45;49428.38;;;-142.28;100.00
4149;BME280;2088;51.032;7.082;2022-10-16T03:02:11;49393.53;;;-142.28;100.00
4149;BME280;2088;51.032;7.082;2022-10-16T03:04:38;49389.66;;;-142.28;100.00
4149;BME280;2088;51.032;7.082;2022-10-16T03:07:05;49376.09;;;-142.28;100.00
4149;BME280;2088;51.032;7.082;2022-10-16T03:09:32;49362.53;;;-142.28;100.00
4149;BME280;2088;51.032;7.082;2022-10-16T03:11:59;49383.84;;;-142.28;100.00
4149;BME280;2088;51.032;7.082;2022-10-16T03:14:25;49376.09;;;-142.28;100.00
4149;BME280;2088;51.032;7.082;2022-10-16T03:16:52;49335.44;;;-142.28;100.00
4149;BME280;2088;51.032;7.082;2022-10-16T03:19:18;49362.53;;;-142.28;100.00
4149;BME280;2088;51.032;7.082;2022-10-16T03:21:45;49356.72;;;-142.28;100.00
4149;BME280;2088;51.032;7.082;2022-10-16T03:24:13;49378.03;;;-142.28;100.00
4149;BME280;2088;51.032;7.082;2022-10-16T03:26:39;49345.13;;;-142.28;100.00
4149;BME280;2088;51.032;7.082;2022-10-16T03:29:06;49397.38;;;-142.28;100.00
4149;BME280;2088;51.032;7.082;2022-10-16T03:31:32;49407.06;;;-142.28;100.00
4149;BME280;2088;51.032;7.082;2022-10-16T03:33:59;49426.44;;;-142.28;100.00
4149;BME280;2088;51.032;7.082;2022-10-16T03:36:25;49430.31;;;-142.28;100.00
4149;BME280;2088;51.032;7.082;2022-10-16T03:38:52;49457.41;;;-142.28;100.00
4149;BME280;2088;51.032;7.082;2022-10-16T03:41:20;49449.66;;;-142.28;100.00
4149;BME280;2088;51.032;7.082;2022-10-16T03:43:46;49455.47;;;-142.28;100.00
4149;BME280;2088;51.032;7.082;2022-10-16T03:46:13;49459.34;;;-142.28;100.00
4149;BME280;2088;51.032;7.082;2022-10-16T03:48:39;49488.38;;;-142.28;100.00
4149;BME280;2088;51.032;7.082;2022-10-16T03:51:06;49507.75;;;-142.28;100.00
4149;BME280;2088;51.032;7.082;2022-10-16T03:53:32;49503.88;;;-142.28;100.00
4149;BME280;2088;51.032;7.082;2022-10-16T03:55:58;49507.75;;;-142.28;100.00
4149;BME280;2088;51.032;7.082;2022-10-16T03:58:26;49536.78;;;-142.28;100.00
4149;BME280;2088;51.032;7.082;2022-10-16T04:00:53;49513.53;;;-142.28;100.00
4149;BME280;2088;51.032;7.082;2022-10-16T04:03:19;49525.16;;;-142.28;100.00
4149;BME280;2088;51.032;7.082;2022-10-16T04:05:46;49494.19;;;-142.28;100.00
4149;BME280;2088;51.032;7.082;2022-10-16T04:08:13;49467.09;;;-142.28;100.00
4149;BME280;2088;51.032;7.082;2022-10-16T04:10:39;49478.69;;;-142.28;100.00
4149;BME280;2088;51.032;7.082;2022-10-16T04:13:05;49480.63;;;-142.28;100.00
4149;BME280;2088;51.032;7.082;2022-10-16T04:15:33;49469.03;;;-142.28;100.00
4149;BME280;2088;51.032;7.082;2022-10-16T04:18:00;49432.25;;;-142.28;100.00
4149;BME280;2088;51.032;7.082;2022-10-16T04:20:26;49430.31;;;-142.28;100.00
4149;BME280;2088;51.032;7.082;2022-10-16T04:22:53;49407.06;;;-142.28;100.00
4149;BME280;2088;51.032;7.082;2022-10-16T04:25:19;49422.56;;;-142.28;100.00
4149;BME280;2088;51.032;7.082;2022-10-16T04:27:46;49441.91;;;-142.28;100.00
4149;BME280;2088;51.032;7.082;2022-10-16T04:30:12;49455.47;;;-142.28;100.00
4149;BME280;2088;51.032;7.082;2022-10-16T04:32:40;49441.91;;;-142.28;100.00
4149;BME280;2088;51.032;7.082;2022-10-16T04:35:07;49465.16;;;-142.28;100.00
4149;BME280;2088;51.032;7.082;2022-10-16T04:37:34;49428.38;;;-142.28;100.00
4149;BME280;2088;51.032;7.082;2022-10-16T04:40:00;49441.91;;;-142.28;100.00
4149;BME280;2088;51.032;7.082;2022-10-16T04:42:27;49445.78;;;-142.28;100.00
4149;BME280;2088;51.032;7.082;2022-10-16T04:44:53;49470.97;;;-142.28;100.00
4149;BME280;2088;51.032;7.082;2022-10-16T04:47:20;49476.75;;;-142.28;100.00
4149;BME280;2088;51.032;7.082;2022-10-16T04:49:48;49472.91;;;-142.28;100.00
4149;BME280;2088;51.032;7.082;2022-10-16T04:52:14;49480.63;;;-142.28;100.00
4149;BME280;2088;51.032;7.082;2022-10-16T04:54:40;49476.75;;;-142.28;100.00
4149;BME280;2088;51.032;7.082;2022-10-16T04:57:07;49492.25;;;-142.28;100.00
4149;BME280;2088;51.032;7.082;2022-10-16T04:59:33;49457.41;;;-142.28;100.00
4149;BME280;2088;51.032;7.082;2022-10-16T05:02:00;49486.44;;;-142.28;100.00
4149;BME280;2088;51.032;7.082;2022-10-16T05:04:26;49492.25;;;-142.28;100.00
4149;BME280;2088;51.032;7.082;2022-10-16T05:06:54;49511.63;;;-142.28;100.00
4149;BME280;2088;51.032;7.082;2022-10-16T05:09:20;49492.25;;;-142.28;100.00
4149;BME280;2088;51.032;7.082;2022-10-16T05:11:47;49465.16;;;-142.28;100.00
4149;BME280;2088;51.032;7.082;2022-10-16T05:14:13;49457.41;;;-142.28;100.00
4149;BME280;2088;51.032;7.082;2022-10-16T05:16:40;49459.34;;;-142.28;100.00
4149;BME280;2088;51.032;7.082;2022-10-16T05:19:06;49476.75;;;-142.28;100.00
4149;BME280;2088;51.032;7.082;2022-10-16T05:21:32;49467.09;;;-142.28;100.00
4149;BME280;2088;51.032;7.082;2022-10-16T05:24:00;49457.41;;;-142.28;100.00
4149;BME280;2088;51.032;7.082;2022-10-16T05:26:27;49465.16;;;-142.28;100.00
4149;BME280;2088;51.032;7.082;2022-10-16T05:28:53;49445.78;;;-142.28;100.00
4149;BME280;2088;51.032;7.082;2022-10-16T05:31:20;49430.31;;;-142.28;100.00
4149;BME280;2088;51.032;7.082;2022-10-16T05:33:46;49410.94;;;-142.28;100.00
4149;BME280;2088;51.032;7.082;2022-10-16T05:36:12;49441.91;;;-142.28;100.00
4149;BME280;2088;51.032;7.082;2022-10-16T05:38:39;49426.44;;;-142.28;100.00
4149;BME280;2088;51.032;7.082;2022-10-16T05:41:07;49426.44;;;-142.28;100.00
4149;BME280;2088;51.032;7.082;2022-10-16T05:43:33;49428.38;;;-142.28;100.00
4149;BME280;2088;51.032;7.082;2022-10-16T05:46:02;49414.81;;;-142.28;100.00
4149;BME280;2088;51.032;7.082;2022-10-16T05:48:29;49434.16;;;-142.28;100.00
4149;BME280;2088;51.032;7.082;2022-10-16T05:50:59;49401.25;;;-142.28;100.00
4149;BME280;2088;51.032;7.082;2022-10-16T05:53:27;49418.69;;;-142.28;100.00
4149;BME280;2088;51.032;7.082;2022-10-16T05:55:54;49368.34;;;-142.28;100.00
4149;BME280;2088;51.032;7.082;2022-10-16T05:58:23;49389.66;;;-142.28;100.00
4149;BME280;2088;51.032;7.082;2022-10-16T06:00:54;49399.31;;;-142.28;100.00
4149;BME280;2088;51.032;7.082;2022-10-16T06:03:21;49405.13;;;-142.28;100.00
4149;BME280;2088;51.032;7.082;2022-10-16T06:05:48;49420.63;;;-142.28;100.00
4149;BME280;2088;51.032;7.082;2022-10-16T06:08:14;49395.44;;;-142.28;100.00
4149;BME280;2088;51.032;7.082;2022-10-16T06:10:41;49428.38;;;-142.28;100.00
4149;BME280;2088;51.032;7.082;2022-10-16T06:13:07;49403.19;;;-142.28;100.00
4149;BME280;2088;51.032;7.082;2022-10-16T06:15:35;49412.88;;;-142.28;100.00
4149;BME280;2088;51.032;7.082;2022-10-16T06:18:01;49441.91;;;-142.28;100.00
4149;BME280;2088;51.032;7.082;2022-10-16T06:20:28;49439.97;;;-142.28;100.00
4149;BME280;2088;51.032;7.082;2022-10-16T06:22:54;49430.31;;;-142.28;100.00
4149;BME280;2088;51.032;7.082;2022-10-16T06:25:20;49418.69;;;-142.28;100.00
4149;BME280;2088;51.032;7.082;2022-10-16T06:27:47;49418.69;;;-142.28;100.00
4149;BME280;2088;51.032;7.082;2022-10-16T06:30:13;49428.38;;;-142.28;100.00
4149;BME280;2088;51.032;7.082;2022-10-16T06:32:41;49457.41;;;-142.28;100.00
4149;BME280;2088;51.032;7.082;2022-10-16T06:35:08;49434.16;;;-142.28;100.00
4149;BME280;2088;51.032;7.082;2022-10-16T06:37:34;49461.28;;;-142.28;100.00
4149;BME280;2088;51.032;7.082;2022-10-16T06:40:01;49459.34;;;-142.28;100.00
4149;BME280;2088;51.032;7.082;2022-10-16T06:42:29;49453.53;;;-142.28;100.00
4149;BME280;2088;51.032;7.082;2022-10-16T06:44:56;49443.84;;;-142.28;100.00
4149;BME280;2088;51.032;7.082;2022-10-16T06:47:22;49441.91;;;-142.28;100.00
4149;BME280;2088;51.032;7.082;2022-10-16T06:49:50;49451.59;;;-142.28;100.00
4149;BME280;2088;51.032;7.082;2022-10-16T06:52:16;49418.69;;;-142.28;100.00
4149;BME280;2088;51.032;7.082;2022-10-16T06:54:43;49432.25;;;-142.28;100.00
4149;BME280;2088;51.032;7.082;2022-10-16T06:57:09;49403.19;;;-142.28;100.00
4149;BME280;2088;51.032;7.082;2022-10-16T06:59:36;49393.53;;;-142.28;100.00
4149;BME280;2088;51.032;7.082;2022-10-16T07:02:02;49368.34;;;-142.28;100.00
4149;BME280;2088;51.032;7.082;2022-10-16T07:04:29;49347.06;;;-142.28;100.00
4149;BME280;2088;51.032;7.082;2022-10-16T07:06:56;49321.88;;;-142.28;100.00
4149;BME280;2088;51.032;7.082;2022-10-16T07:09:23;49321.88;;;-142.28;100.00
4149;BME280;2088;51.032;7.082;2022-10-16T07:11:49;49319.94;;;-142.28;100.00
4149;BME280;2088;51.032;7.082;2022-10-16T07:14:18;49298.66;;;-142.28;100.00
4149;BME280;2088;51.032;7.082;2022-10-16T07:16:45;49265.75;;;-142.28;100.00
4149;BME280;2088;51.032;7.082;2022-10-16T07:19:12;49236.72;;;-142.28;100.00
4149;BME280;2088;51.032;7.082;2022-10-16T07:21:40;49261.88;;;-142.28;100.00
4149;BME280;2088;51.032;7.082;2022-10-16T07:24:12;49244.44;;;-142.28;100.00
4149;BME280;2088;51.032;7.082;2022-10-16T07:26:39;49196.06;;;-142.28;100.00
4149;BME280;2088;51.032;7.082;2022-10-16T07:29:07;49201.88;;;-142.28;100.00
4149;BME280;2088;51.032;7.082;2022-10-16T07:31:37;49182.50;;;-142.28;100.00
4149;BME280;2088;51.032;7.082;2022-10-16T07:34:04;49192.19;;;-142.28;100.00
4149;BME280;2088;51.032;7.082;2022-10-16T07:36:30;49128.31;;;-142.28;100.00
4149;BME280;2088;51.032;7.082;2022-10-16T07:38:57;49120.56;;;-142.28;100.00
4149;BME280;2088;51.032;7.082;2022-10-16T07:41:24;49139.91;;;-142.28;100.00
4149;BME280;2088;51.032;7.082;2022-10-16T07:43:52;49163.16;;;-142.28;100.00
4149;BME280;2088;51.032;7.082;2022-10-16T07:46:20;49182.50;;;-142.28;100.00
4149;BME280;2088;51.032;7.082;2022-10-16T07:48:47;49153.47;;;-142.28;100.00
4149;BME280;2088;51.032;7.082;2022-10-16T07:51:16;49155.41;;;-142.28;100.00
4149;BME280;2088;51.032;7.082;2022-10-16T07:53:42;49163.16;;;-142.28;100.00
4149;BME280;2088;51.032;7.082;2022-10-16T07:56:10;49151.53;;;-142.28;100.00
4149;BME280;2088;51.032;7.082;2022-10-16T07:58:38;49163.16;;;-142.28;100.00
4149;BME280;2088;51.032;7.082;2022-10-16T08:01:06;49143.78;;;-142.28;100.00
4149;BME280;2088;51.032;7.082;2022-10-16T08:03:32;49170.91;;;-142.28;100.00
4149;BME280;2088;51.032;7.082;2022-10-16T08:05:59;49155.41;;;-142.28;100.00
4149;BME280;2088;51.032;7.082;2022-10-16T08:08:26;49145.72;;;-142.28;100.00
4149;BME280;2088;51.032;7.082;2022-10-16T08:10:54;49136.06;;;-142.28;100.00
4149;BME280;2088;51.032;7.082;2022-10-16T08:13:20;49128.31;;;-142.28;100.00
4149;BME280;2088;51.032;7.082;2022-10-16T08:15:48;49132.19;;;-142.28;100.00
4149;BME280;2088;51.032;7.082;2022-10-16T08:18:15;49083.78;;;-142.28;100.00
4149;BME280;2088;51.032;7.082;2022-10-16T08:20:42;49110.88;;;-142.28;100.00
4149;BME280;2088;51.032;7.082;2022-10-16T08:23:09;49108.94;;;-142.28;100.00
4149;BME280;2088;51.032;7.082;2022-10-16T08:25:37;49107.00;;;-142.28;100.00
4149;BME280;2088;51.032;7.082;2022-10-16T08:28:04;49107.00;;;-142.28;100.00
4149;BME280;2088;51.032;7.082;2022-10-16T08:30:31;49072.16;;;-142.28;100.00
4149;BME280;2088;51.032;7.082;2022-10-16T08:32:59;49039.25;;;-142.28;100.00
4149;BME280;2088;51.032;7.082;2022-10-16T08:35:25;49041.19;;;-142.28;100.00
4149;BME280;2088;51.032;7.082;2022-10-16T08:37:52;49002.47;;;-142.28;99.46
4149;BME280;2088;51.032;7.082;2022-10-16T08:40:21;48988.94;;;-142.28;99.28
4149;BME280;2088;51.032;7.082;2022-10-16T08:43:12;48952.16;;;-142.28;97.77
4149;BME280;2088;51.032;7.082;2022-10-16T08:45:58;48934.72;;;-142.28;96.51
4149;BME280;2088;51.032;7.082;2022-10-16T08:48:35;48909.56;;;-142.28;96.27
4149;BME280;2088;51.032;7.082;2022-10-16T08:51:08;48888.28;;;-142.28;95.15
4149;BME280;2088;51.032;7.082;2022-10-16T08:53:42;48826.34;;;-142.28;93.66
4149;BME280;2088;51.032;7.082;2022-10-16T08:56:10;48824.41;;;-142.28;93.68
4149;BME280;2088;51.032;7.082;2022-10-16T08:58:37;48799.25;;;-142.28;93.85
4149;BME280;2088;51.032;7.082;2022-10-16T09:01:11;48787.63;;;-142.28;92.93
4149;BME280;2088;51.032;7.082;2022-10-16T09:03:50;48772.16;;;-142.28;92.84
4149;BME280;2088;51.032;7.082;2022-10-16T09:06:31;48764.41;;;-142.28;91.57
4149;BME280;2088;51.032;7.082;2022-10-16T09:09:20;48712.13;;;-142.28;90.95
4149;BME280;2088;51.032;7.082;2022-10-16T09:11:56;48714.06;;;-142.28;89.71
4149;BME280;2088;51.032;7.082;2022-10-16T09:14:37;48667.63;;;-142.28;89.40
4149;BME280;2088;51.032;7.082;2022-10-16T09:20:15;48596.00;;;-142.28;87.62
4149;BME280;2088;51.032;7.082;2022-10-16T09:22:44;48586.34;;;-142.28;86.14
4149;BME280;2088;51.032;7.082;2022-10-16T09:25:13;48532.13;;;-142.28;83.93
4149;BME280;2088;51.032;7.082;2022-10-16T09:27:40;48532.13;;;-142.28;83.61
4149;BME280;2088;51.032;7.082;2022-10-16T09:30:12;48547.63;;;-142.28;84.00
4149;BME280;2088;51.032;7.082;2022-10-16T09:32:40;48464.41;;;-142.28;80.56
4149;BME280;2088;51.032;7.082;2022-10-16T09:35:14;48433.44;;;-142.28;77.24
4149;BME280;2088;51.032;7.082;2022-10-16T09:37:42;48385.06;;;-142.28;76.84
4149;BME280;2088;51.032;7.082;2022-10-16T09:40:12;48404.41;;;-142.28;77.79
4149;BME280;2088;51.032;7.082;2022-10-16T09:42:39;48377.31;;;-142.28;79.27
4149;BME280;2088;51.032;7.082;2022-10-16T09:45:20;48392.78;;;-142.28;77.07
4149;BME280;2088;51.032;7.082;2022-10-16T09:47:47;48367.63;;;-142.28;76.76
4149;BME280;2088;51.032;7.082;2022-10-16T09:50:23;48390.84;;;-142.28;77.48
4149;BME280;2088;51.032;7.082;2022-10-16T09:53:02;48388.91;;;-142.28;78.46
4149;BME280;2088;51.032;7.082;2022-10-16T09:55:28;48385.06;;;-142.28;78.60
4149;BME280;2088;51.032;7.082;2022-10-16T09:57:55;48336.66;;;-142.28;74.38
4149;BME280;2088;51.032;7.082;2022-10-16T10:00:22;48319.25;;;-142.28;73.74
4149;BME280;2088;51.032;7.082;2022-10-16T10:02:49;48327.00;;;-142.28;73.35
4149;BME280;2088;51.032;7.082;2022-10-16T10:05:19;48328.94;;;-142.28;73.60
4149;BME280;2088;51.032;7.082;2022-10-16T10:07:54;48327.00;;;-142.28;74.08
4149;BME280;2088;51.032;7.082;2022-10-16T10:10:23;48325.06;;;-142.28;76.04
4149;BME280;2088;51.032;7.082;2022-10-16T10:12:49;48315.38;;;-142.28;75.21
4149;BME280;2088;51.032;7.082;2022-10-16T10:15:16;48299.91;;;-142.28;73.01
4149;BME280;2088;51.032;7.082;2022-10-16T10:17:46;48305.69;;;-142.28;73.74
4149;BME280;2088;51.032;7.082;2022-10-16T10:20:22;48282.47;;;-142.28;71.61
4149;BME280;2088;51.032;7.082;2022-10-16T10:22:50;48267.00;;;-142.28;71.64
4149;BME280;2088;51.032;7.082;2022-10-16T10:25:28;48274.75;;;-142.28;72.48
4149;BME280;2088;51.032;7.082;2022-10-16T10:28:21;48284.41;;;-142.28;73.58
4149;BME280;2088;51.032;7.082;2022-10-16T10:30:56;48274.75;;;-142.28;68.69
4149;BME280;2088;51.032;7.082;2022-10-16T10:33:31;48251.50;;;-142.28;66.40
4149;BME280;2088;51.032;7.082;2022-10-16T10:36:09;48214.75;;;-142.28;61.57
4149;BME280;2088;51.032;7.082;2022-10-16T10:38:47;48205.06;;;-142.28;62.12
4149;BME280;2088;51.032;7.082;2022-10-16T10:41:33;48199.25;;;-142.28;61.54
4149;BME280;2088;51.032;7.082;2022-10-16T10:44:10;48179.91;;;-142.28;61.41
4149;BME280;2088;51.032;7.082;2022-10-16T10:46:43;48187.66;;;-142.28;62.01
4149;BME280;2088;51.032;7.082;2022-10-16T10:49:31;48203.13;;;-142.28;61.54
4149;BME280;2088;51.032;7.082;2022-10-16T10:52:13;48189.59;;;-142.28;63.90
4149;BME280;2088;51.032;7.082;2022-10-16T10:54:52;48181.84;;;-142.28;63.91
4149;BME280;2088;51.032;7.082;2022-10-16T10:57:22;48187.66;;;-142.28;63.60
4149;BME280;2088;51.032;7.082;2022-10-16T11:00:09;48170.22;;;-142.28;61.84
4149;BME280;2088;51.032;7.082;2022-10-16T11:02:43;48156.69;;;-142.28;58.39
4149;BME280;2088;51.032;7.082;2022-10-16T11:05:29;48150.88;;;-142.28;57.77
4149;BME280;2088;51.032;7.082;2022-10-16T11:07:58;48147.00;;;-142.28;55.88
4149;BME280;2088;51.032;7.082;2022-10-16T11:10:32;48141.22;;;-142.28;52.38
4149;BME280;2088;51.032;7.082;2022-10-16T11:13:09;48148.94;;;-142.28;51.93
4149;BME280;2088;51.032;7.082;2022-10-16T11:15:39;48129.59;;;-142.28;51.89
4149;BME280;2088;51.032;7.082;2022-10-16T11:18:12;48145.06;;;-142.28;49.77
4149;BME280;2088;51.032;7.082;2022-10-16T11:20:47;48148.94;;;-142.28;51.13
4149;BME280;2088;51.032;7.082;2022-10-16T11:23:18;48154.75;;;-142.28;50.26
4149;BME280;2088;51.032;7.082;2022-10-16T11:25:48;48148.94;;;-142.28;47.31
4149;BME280;2088;51.032;7.082;2022-10-16T11:28:18;48135.41;;;-142.28;46.55
4149;BME280;2088;51.032;7.082;2022-10-16T11:30:47;48154.75;;;-142.28;46.72
4149;BME280;2088;51.032;7.082;2022-10-16T11:33:36;48133.47;;;-142.28;47.64
4149;BME280;2088;51.032;7.082;2022-10-16T11:36:08;48154.75;;;-142.28;48.21
4149;BME280;2088;51.032;7.082;2022-10-16T11:38:47;48145.06;;;-142.28;46.46
4149;BME280;2088;51.032;7.082;2022-10-16T11:41:24;48145.06;;;-142.28;46.23
4149;BME280;2088;51.032;7.082;2022-10-16T11:44:08;48123.78;;;-142.28;44.73
4149;BME280;2088;51.032;7.082;2022-10-16T11:46:43;48125.72;;;-142.28;43.98
4149;BME280;2088;51.032;7.082;2022-10-16T11:49:14;48141.22;;;-142.28;43.81
4149;BME280;2088;51.032;7.082;2022-10-16T11:51:44;48121.84;;;-142.28;42.93
4149;BME280;2088;51.032;7.082;2022-10-16T11:54:19;48154.75;;;-142.28;42.35
4149;BME280;2088;51.032;7.082;2022-10-16T11:56:53;48123.78;;;-142.28;42.64
4149;BME280;2088;51.032;7.082;2022-10-16T11:59:26;48147.00;;;-142.28;42.75
4149;BME280;2088;51.032;7.082;2022-10-16T12:04:45;48147.00;;;-142.28;45.76
4149;BME280;2088;51.032;7.082;2022-10-16T12:07:18;48117.97;;;-142.28;47.82
4149;BME280;2088;51.032;7.082;2022-10-16T12:09:47;48135.41;;;-142.28;48.69
4149;BME280;2088;51.032;7.082;2022-10-16T12:12:37;48129.59;;;-142.28;48.67
4149;BME280;2088;51.032;7.082;2022-10-16T12:15:20;48129.59;;;-142.28;48.86
4149;BME280;2088;51.032;7.082;2022-10-16T12:17:47;48160.56;;;-142.28;48.45
4149;BME280;2088;51.032;7.082;2022-10-16T12:20:21;48148.94;;;-142.28;48.08
4149;BME280;2088;51.032;7.082;2022-10-16T12:22:50;48110.25;;;-142.28;48.33
4149;BME280;2088;51.032;7.082;2022-10-16T12:25:21;48164.44;;;-142.28;47.98
4149;BME280;2088;51.032;7.082;2022-10-16T12:27:56;48154.75;;;-142.28;48.56
4149;BME280;2088;51.032;7.082;2022-10-16T12:30:25;48158.63;;;-142.28;49.67
4149;BME280;2088;51.032;7.082;2022-10-16T12:32:56;48141.22;;;-142.28;48.37
4149;BME280;2088;51.032;7.082;2022-10-16T12:35:25;48152.81;;;-142.28;48.17
4149;BME280;2088;51.032;7.082;2022-10-16T12:37:53;48145.06;;;-142.28;48.67
4149;BME280;2088;51.032;7.082;2022-10-16T12:40:27;48131.53;;;-142.28;47.93
4149;BME280;2088;51.032;7.082;2022-10-16T12:42:55;48117.97;;;-142.28;47.74
4149;BME280;2088;51.032;7.082;2022-10-16T12:45:27;48137.34;;;-142.28;47.30
4149;BME280;2088;51.032;7.082;2022-10-16T12:47:55;48133.47;;;-142.28;45.40
4149;BME280;2088;51.032;7.082;2022-10-16T12:50:31;48117.97;;;-142.28;42.17
4149;BME280;2088;51.032;7.082;2022-10-16T12:52:58;48110.25;;;-142.28;41.74
4149;BME280;2088;51.032;7.082;2022-10-16T12:55:26;48121.84;;;-142.28;40.83
4149;BME280;2088;51.032;7.082;2022-10-16T12:58:11;48117.97;;;-142.28;38.40
4149;BME280;2088;51.032;7.082;2022-10-16T13:00:44;48117.97;;;-142.28;37.51
4149;BME280;2088;51.032;7.082;2022-10-16T13:03:26;48125.72;;;-142.28;37.42
4149;BME280;2088;51.032;7.082;2022-10-16T13:06:04;48135.41;;;-142.28;37.17
4149;BME280;2088;51.032;7.082;2022-10-16T13:08:45;48121.84;;;-142.28;38.08
4149;BME280;2088;51.032;7.082;2022-10-16T13:11:25;48133.47;;;-142.28;38.85